Terminal Aerodrome Forecast
Issued by NWS

Current Version | Previous Version | Text Only | Print | Product List | Glossary On
Versions: 1 2 3 4 5 6 7 8 9 10 11 12 13 14 15 16 17 18 19 20 21 22
000
FTAK31 PANC 272340
TAFAAQ
TAF
PAAQ 272340Z 2800/2824 VRB03KT P6SM SCT040 OVC100
     FM281200 35006KT P6SM SKC
     FM282100 VRB03KT P6SM SKC=

USA.gov is the U.S. government's official web portal to all federal, state and local government web resources and services.